createdAt,value
2018-03-20T16:20:26.904Z,1.60
2018-03-20T16:21:32.372Z,1.48
2018-03-20T16:22:38.179Z,1.52
2018-03-20T16:23:43.693Z,2.62
2018-03-20T16:24:50.352Z,1.60
2018-03-20T16:25:57.126Z,2.00
2018-03-20T16:27:04.425Z,1.60
2018-03-20T16:28:11.728Z,1.90
2018-03-20T16:29:17.265Z,1.45
2018-03-20T16:30:22.607Z,1.65
2018-03-20T16:31:28.589Z,1.65
2018-03-20T16:32:34.519Z,1.65
2018-03-20T16:33:41.109Z,1.60
2018-03-20T16:34:46.632Z,1.98
2018-03-20T16:35:52.217Z,1.40
2018-03-20T16:36:58.873Z,1.40
2018-03-20T16:38:04.370Z,1.58
2018-03-20T16:39:11.335Z,2.08
2018-03-20T16:40:17.006Z,1.40
2018-03-20T16:41:22.731Z,1.73
2018-03-20T16:42:28.233Z,2.08
2018-03-20T16:43:33.801Z,2.00
2018-03-20T16:44:39.961Z,1.90
2018-03-20T16:45:45.789Z,1.12
2018-03-20T16:46:51.198Z,1.40
2018-03-20T16:47:56.898Z,1.58
2018-03-20T16:49:04.214Z,2.40
2018-03-20T16:50:11.217Z,1.60
2018-03-20T16:51:16.652Z,1.60
2018-03-20T16:52:22.414Z,1.50
2018-03-20T16:53:28.003Z,1.50
2018-03-20T16:54:33.969Z,1.20
2018-03-20T16:55:39.423Z,1.73
2018-03-20T16:56:44.733Z,1.65
2018-03-20T16:57:50.238Z,1.37
2018-03-20T16:58:56.132Z,1.20
2018-03-20T17:00:01.763Z,1.10
2018-03-20T17:01:09.084Z,1.77
2018-03-20T17:02:14.507Z,1.30
2018-03-20T17:03:19.967Z,1.60
2018-03-20T17:04:26.204Z,1.70
2018-03-20T17:05:31.936Z,1.70
2018-03-20T17:06:37.317Z,1.50
2018-03-20T17:07:42.811Z,1.65
2018-03-20T17:08:50.500Z,1.42
2018-03-20T17:09:57.551Z,1.52
2018-03-20T17:11:03.130Z,1.98
2018-03-20T17:12:09.556Z,1.35
2018-03-20T17:13:15.162Z,1.37
2018-03-20T17:14:20.493Z,1.30
2018-03-20T17:15:26.151Z,1.20
2018-03-20T17:16:32.556Z,1.65
2018-03-20T17:17:38.037Z,1.30
2018-03-20T17:18:43.557Z,1.27
2018-03-20T17:19:48.985Z,1.10
2018-03-20T17:20:54.575Z,1.08
2018-03-20T17:22:00.055Z,1.15
2018-03-20T17:23:06.098Z,1.52
2018-03-20T17:24:11.624Z,1.50
2018-03-20T17:25:18.215Z,1.20
2018-03-20T17:26:24.049Z,1.48
2018-03-20T17:27:31.311Z,1.52
2018-03-20T17:28:37.424Z,1.70
2018-03-20T17:29:43.444Z,1.60
2018-03-20T17:30:48.891Z,1.20
2018-03-20T17:31:55.148Z,1.50
2018-03-20T17:33:01.256Z,1.35
2018-03-20T17:34:07.679Z,1.30
2018-03-20T17:35:13.254Z,1.95
2018-03-20T17:36:18.667Z,1.48
2018-03-20T17:37:24.630Z,1.50
2018-03-20T17:38:29.992Z,1.17
2018-03-20T17:39:35.734Z,1.40
2018-03-20T17:40:41.977Z,1.40
2018-03-20T17:41:47.883Z,1.48
2018-03-20T17:42:53.280Z,1.10
2018-03-20T17:43:58.837Z,1.00
2018-03-20T17:45:08.993Z,1.52
2018-03-20T17:46:15.302Z,1.40
2018-03-20T17:47:21.547Z,1.65
2018-03-20T17:48:39.553Z,1.17
2018-03-20T17:49:46.220Z,1.40
2018-03-20T17:50:53.119Z,1.40
2018-03-20T17:52:00.017Z,2.08
2018-03-20T17:53:07.276Z,1.65
2018-03-20T17:54:13.623Z,1.25
2018-03-20T17:55:19.926Z,1.67
2018-03-20T17:56:25.263Z,1.23
2018-03-20T17:57:30.832Z,1.40
2018-03-20T17:58:36.994Z,1.70
2018-03-20T17:59:43.529Z,1.30
2018-03-20T18:00:48.989Z,1.40
2018-03-20T18:01:55.156Z,1.50
2018-03-20T18:03:00.468Z,1.85
2018-03-20T18:04:07.642Z,1.45
2018-03-20T18:05:14.019Z,1.10
2018-03-20T18:06:20.051Z,1.25
2018-03-20T18:07:25.624Z,1.30
2018-03-20T18:08:30.881Z,2.28
2018-03-20T18:09:36.390Z,1.27
2018-03-20T18:10:42.819Z,1.30
2018-03-20T18:11:48.718Z,1.42
2018-03-20T18:12:55.512Z,1.70
2018-03-20T18:14:01.311Z,1.42
2018-03-20T18:15:07.492Z,1.33
2018-03-20T18:16:12.859Z,1.40
2018-03-20T18:17:18.285Z,1.10
2018-03-20T18:18:24.984Z,1.15
2018-03-20T18:19:31.282Z,1.30
2018-03-20T18:20:37.354Z,1.12
2018-03-20T18:21:43.333Z,1.40
2018-03-20T18:22:49.564Z,1.20
2018-03-20T18:23:54.780Z,1.75
2018-03-20T18:25:00.485Z,1.33
2018-03-20T18:26:06.193Z,2.05
2018-03-20T18:27:14.881Z,1.40
2018-03-20T18:28:21.762Z,1.23
2018-03-20T18:29:27.520Z,1.20
2018-03-20T18:30:39.743Z,1.10
2018-03-20T18:31:47.626Z,1.40
2018-03-20T18:32:56.082Z,1.30
2018-03-20T18:34:04.186Z,0.90
2018-03-20T18:35:18.922Z,1.25
2018-03-20T18:36:25.342Z,1.70
2018-03-20T18:37:32.071Z,1.15
2018-03-20T18:38:37.578Z,1.10
2018-03-20T18:39:43.332Z,1.27
2018-03-20T18:40:48.632Z,1.20
2018-03-20T18:41:56.192Z,1.80
2018-03-20T18:43:03.562Z,1.67
2018-03-20T18:44:12.495Z,1.20
2018-03-20T18:45:18.767Z,1.55
2018-03-20T18:46:24.051Z,1.30
2018-03-20T18:47:29.450Z,1.40
2018-03-20T18:48:34.706Z,1.42
2018-03-20T18:49:40.323Z,1.40
2018-03-20T18:51:53.314Z,1.35
2018-03-20T18:52:58.740Z,1.50
2018-03-20T18:54:04.354Z,1.65
2018-03-20T18:55:10.548Z,1.40
2018-03-20T18:56:15.925Z,1.60
2018-03-20T18:57:21.751Z,1.37
2018-03-20T18:58:27.155Z,1.10
2018-03-20T18:59:32.720Z,1.67
2018-03-20T19:00:39.387Z,1.27
2018-03-20T19:01:45.904Z,1.37
2018-03-20T19:02:51.204Z,1.02
2018-03-20T19:03:56.560Z,1.37
2018-03-20T19:05:02.001Z,1.60
2018-03-20T19:06:07.947Z,1.30
2018-03-20T19:07:14.380Z,1.45
2018-03-20T19:08:20.407Z,1.25
2018-03-20T19:09:25.785Z,1.27
2018-03-20T19:10:32.446Z,1.25
2018-03-20T19:11:38.373Z,2.08
2018-03-20T19:12:44.120Z,1.40
2018-03-20T19:13:54.574Z,1.48
2018-03-20T19:15:00.054Z,1.15
2018-03-20T19:16:07.281Z,1.67
2018-03-20T19:17:13.744Z,1.27
2018-03-20T19:18:20.111Z,1.62
2018-03-20T19:19:28.737Z,1.80
2018-03-20T19:20:34.142Z,1.10
2018-03-20T19:21:40.701Z,1.50
2018-03-20T19:22:47.150Z,1.48
2018-03-20T19:23:52.608Z,1.42
2018-03-20T19:24:57.888Z,1.33
2018-03-20T19:26:03.394Z,1.55
2018-03-20T19:27:09.572Z,1.40
2018-03-20T19:28:15.918Z,1.30
2018-03-20T19:29:22.080Z,1.58
2018-03-20T19:30:28.445Z,1.62
2018-03-20T19:31:34.503Z,1.62
2018-03-20T19:32:40.725Z,1.83
2018-03-20T19:33:46.938Z,1.40
2018-03-20T19:34:52.295Z,1.70
2018-03-20T19:35:57.691Z,1.50
2018-03-20T19:37:04.506Z,1.60
2018-03-20T19:38:11.547Z,1.58
2018-03-20T19:39:17.252Z,1.67
2018-03-20T19:40:22.701Z,2.15
2018-03-20T19:41:28.246Z,1.55
2018-03-20T19:42:34.423Z,1.70
2018-03-20T19:43:40.998Z,1.40
2018-03-20T19:44:46.378Z,1.75
2018-03-20T19:45:51.781Z,1.60
2018-03-20T19:46:59.477Z,1.50
2018-03-20T19:48:08.745Z,1.23
2018-03-20T19:49:15.479Z,1.83
2018-03-20T19:50:20.729Z,1.50
2018-03-20T19:51:27.835Z,1.60
2018-03-20T19:52:35.354Z,1.75
2018-03-20T19:53:42.381Z,1.75
2018-03-20T19:54:47.794Z,1.83
2018-03-20T19:55:53.465Z,1.20
2018-03-20T19:56:58.763Z,1.70
2018-03-20T19:58:13.650Z,1.80
2018-03-20T19:59:19.893Z,2.03
2018-03-20T20:00:25.197Z,1.90
2018-03-20T20:01:30.860Z,1.55
2018-03-20T20:02:36.432Z,1.87
2018-03-20T20:03:43.186Z,1.62
2018-03-20T20:04:49.799Z,1.87
2018-03-20T20:05:56.547Z,1.60
2018-03-20T20:07:02.404Z,1.70
2018-03-20T20:08:12.078Z,1.60
2018-03-20T20:09:19.397Z,1.62
2018-03-20T20:10:24.842Z,1.83
2018-03-20T20:11:31.228Z,1.92
2018-03-20T20:12:37.376Z,1.23
2018-03-20T20:13:44.798Z,2.00
2018-03-20T20:14:54.294Z,1.42
2018-03-20T20:16:02.057Z,2.03
2018-03-20T20:17:09.731Z,1.73
2018-03-20T20:18:16.340Z,1.37
2018-03-20T20:19:22.255Z,1.80
2018-03-20T20:20:37.461Z,2.00
2018-03-20T20:21:45.396Z,1.55
2018-03-20T20:22:55.088Z,1.95
2018-03-20T20:24:02.745Z,1.52
2018-03-20T20:25:14.023Z,2.05
2018-03-20T20:26:36.211Z,1.77
2018-03-20T20:27:45.339Z,1.90
2018-03-20T20:28:50.637Z,1.90
2018-03-20T20:29:55.936Z,1.73
2018-03-20T20:31:02.845Z,1.80
2018-03-20T20:32:10.003Z,1.95
2018-03-20T20:33:17.469Z,1.87
2018-03-20T20:34:24.826Z,1.70
2018-03-20T20:35:30.397Z,1.45
2018-03-20T20:36:37.365Z,1.60
2018-03-20T20:37:44.019Z,1.60
2018-03-20T20:38:52.326Z,1.62
2018-03-20T20:39:59.385Z,1.55
2018-03-20T20:41:04.680Z,2.30
2018-03-20T20:42:10.717Z,1.40
2018-03-20T20:43:18.296Z,1.83
2018-03-20T20:44:28.735Z,1.23
2018-03-20T20:45:35.637Z,2.08
2018-03-20T20:46:43.421Z,1.70
2018-03-20T20:47:53.057Z,1.87
2018-03-20T20:48:58.934Z,1.60
2018-03-20T20:50:07.579Z,1.85
2018-03-20T20:51:13.548Z,1.55
2018-03-20T20:52:18.877Z,2.22
2018-03-20T20:53:25.277Z,1.60
2018-03-20T20:54:31.806Z,1.95
2018-03-20T20:55:52.559Z,2.03
2018-03-20T20:56:59.182Z,2.00
2018-03-20T20:58:07.217Z,1.98
2018-03-20T21:01:22.867Z,1.70
2018-03-20T21:02:29.605Z,1.70
2018-03-20T21:03:37.570Z,2.47
2018-03-20T21:04:45.456Z,2.20
2018-03-20T21:05:51.305Z,1.75
2018-03-20T21:06:56.843Z,2.37
2018-03-20T21:08:02.392Z,1.70
2018-03-20T21:09:11.349Z,2.05
2018-03-20T21:10:17.530Z,2.10
2018-03-20T21:11:29.330Z,2.00
2018-03-20T21:12:35.630Z,1.92
2018-03-20T21:13:41.893Z,1.90
2018-03-20T21:14:48.261Z,2.03
2018-03-20T21:15:54.506Z,1.85
2018-03-20T21:16:59.862Z,2.17
2018-03-20T21:18:05.315Z,2.03
2018-03-20T21:19:11.378Z,2.33
2018-03-20T21:20:16.848Z,2.20
2018-03-20T21:21:23.584Z,2.30
2018-03-20T21:22:29.322Z,2.08
2018-03-20T21:23:34.983Z,2.65
2018-03-20T21:24:41.820Z,1.50
2018-03-20T21:25:47.152Z,2.75
2018-03-20T21:26:53.445Z,1.80
2018-03-20T21:27:59.805Z,2.47
2018-03-20T21:29:05.263Z,1.95
2018-03-20T21:30:13.169Z,2.40
2018-03-20T21:31:18.895Z,1.75
2018-03-20T21:32:25.832Z,2.20
2018-03-20T21:33:34.222Z,2.35
2018-03-20T21:34:41.812Z,1.90
2018-03-20T21:35:49.293Z,1.90
2018-03-20T21:36:55.613Z,2.00
2018-03-20T21:38:02.117Z,2.30
2018-03-20T21:39:08.679Z,1.92
2018-03-20T21:40:15.609Z,2.10
2018-03-20T21:41:20.953Z,2.10
2018-03-20T21:42:26.576Z,2.30
2018-03-20T21:43:32.372Z,2.30
2018-03-20T21:44:37.784Z,2.28
2018-03-20T21:45:47.262Z,1.70
2018-03-20T21:46:54.029Z,1.80
2018-03-20T21:47:59.441Z,1.90
2018-03-20T21:49:12.070Z,2.20
2018-03-20T21:50:17.653Z,2.37
2018-03-20T21:51:25.256Z,2.10
2018-03-20T21:52:31.479Z,2.00
2018-03-20T21:53:39.221Z,2.30
2018-03-20T21:54:44.602Z,2.12
2018-03-20T21:55:50.820Z,2.22
2018-03-20T21:56:56.863Z,1.60
2018-03-20T21:58:02.291Z,2.28
2018-03-20T21:59:08.619Z,2.20
2018-03-20T22:00:14.261Z,1.90
2018-03-20T22:01:22.326Z,2.30
2018-03-20T22:02:27.768Z,1.87
2018-03-20T22:03:33.882Z,1.95
2018-03-20T22:04:39.374Z,2.20
2018-03-20T22:05:44.733Z,1.85
2018-03-20T22:06:50.245Z,1.90
2018-03-20T22:07:55.949Z,2.53
2018-03-20T22:09:01.584Z,2.00
2018-03-20T22:10:07.832Z,2.15
2018-03-20T22:11:15.551Z,2.03
2018-03-20T22:12:22.159Z,2.15
2018-03-20T22:13:27.662Z,2.78
2018-03-20T22:14:35.434Z,2.12
2018-03-20T22:15:41.898Z,2.22
2018-03-20T22:16:47.390Z,2.28
2018-03-20T22:17:54.152Z,2.10
2018-03-20T22:19:00.246Z,2.10
2018-03-20T22:20:05.732Z,2.95
2018-03-20T22:21:12.795Z,2.40
2018-03-20T22:22:18.444Z,2.00
2018-03-20T22:23:26.211Z,1.95
2018-03-20T22:24:35.445Z,2.08
2018-03-20T22:25:42.877Z,2.10
2018-03-20T22:26:48.792Z,2.42
2018-03-20T22:27:55.217Z,1.70
2018-03-20T22:29:00.640Z,2.83
2018-03-20T22:30:06.124Z,1.80
2018-03-20T22:31:12.248Z,2.05
2018-03-20T22:32:17.706Z,2.30
2018-03-20T22:33:23.331Z,2.08
2018-03-20T22:34:28.756Z,2.60
2018-03-20T22:35:34.243Z,2.40
2018-03-20T22:36:39.939Z,2.30
2018-03-20T22:37:45.428Z,1.90
2018-03-20T22:38:50.864Z,1.98
2018-03-20T22:39:56.447Z,3.25
2018-03-20T22:41:02.616Z,2.50
2018-03-20T22:42:12.107Z,2.42
2018-03-20T22:43:17.663Z,2.12
2018-03-20T22:44:23.931Z,2.10
2018-03-20T22:45:30.361Z,1.83
2018-03-20T22:46:36.365Z,1.98
2018-03-20T22:47:42.731Z,2.00
2018-03-20T22:48:48.285Z,2.12
2018-03-20T22:49:54.452Z,2.08
2018-03-20T22:51:00.023Z,2.65
2018-03-20T22:52:07.397Z,2.05
2018-03-20T22:53:13.270Z,2.40
2018-03-20T22:54:18.890Z,2.28
2018-03-20T22:55:25.030Z,2.05
2018-03-20T22:56:31.646Z,2.45
2018-03-20T22:57:37.724Z,2.15
2018-03-20T22:58:43.539Z,2.17
2018-03-20T22:59:50.139Z,2.45
2018-03-20T23:00:56.368Z,1.92
2018-03-20T23:02:02.838Z,2.35
2018-03-20T23:03:08.855Z,2.20
2018-03-20T23:04:14.495Z,2.20
2018-03-20T23:05:20.149Z,2.65
2018-03-20T23:06:25.954Z,2.50
2018-03-20T23:07:32.359Z,2.10
2018-03-20T23:08:39.140Z,1.80
2018-03-20T23:09:45.601Z,2.08
2018-03-20T23:10:51.967Z,2.60
2018-03-20T23:11:58.674Z,2.60
2018-03-20T23:14:18.442Z,1.90
2018-03-20T23:15:25.411Z,2.30
2018-03-20T23:16:31.391Z,3.10
2018-03-20T23:17:37.867Z,2.30
2018-03-20T23:18:44.320Z,2.53
2018-03-20T23:19:50.506Z,2.85
2018-03-20T23:20:56.172Z,2.67
2018-03-20T23:22:01.772Z,2.75
2018-03-20T23:23:07.877Z,2.55
2018-03-20T23:24:13.769Z,2.05
2018-03-20T23:25:20.069Z,2.50
2018-03-20T23:26:25.837Z,2.22
2018-03-20T23:27:32.241Z,2.55
2018-03-20T23:28:37.794Z,2.40
2018-03-20T23:29:43.547Z,2.30
2018-03-20T23:30:50.251Z,3.00
2018-03-20T23:31:57.621Z,3.40
2018-03-20T23:33:03.203Z,2.53
2018-03-20T23:34:10.545Z,2.45
2018-03-20T23:35:16.446Z,2.70
2018-03-20T23:36:22.494Z,2.55
2018-03-20T23:37:28.262Z,2.60
2018-03-20T23:38:34.826Z,2.60
2018-03-20T23:39:40.347Z,2.70
2018-03-20T23:40:46.775Z,2.35
2018-03-20T23:41:52.550Z,2.12
2018-03-20T23:42:58.872Z,2.60
2018-03-20T23:44:04.697Z,2.92
2018-03-20T23:45:11.034Z,2.70
2018-03-20T23:46:16.775Z,2.37
2018-03-20T23:47:22.322Z,2.50
2018-03-20T23:48:27.678Z,2.67
2018-03-20T23:49:33.431Z,2.95
2018-03-20T23:50:39.834Z,2.72
2018-03-20T23:51:45.353Z,2.78
2018-03-20T23:52:51.617Z,2.30
2018-03-20T23:53:59.643Z,2.50
2018-03-20T23:55:05.436Z,2.40
2018-03-20T23:56:12.752Z,2.50
2018-03-20T23:57:19.066Z,3.00
2018-03-20T23:58:27.959Z,2.42
2018-03-20T23:59:35.931Z,2.62
